Time;durP1;ratioP1;P1;durP2;ratioP2;P2;SDS_P1;SDS_P2;PMS_P1;PMS_P2;Temp;Humidity;BMP_temperature;BMP_pressure;BME280_temperature;BME280_humidity;BME280_pressure;Samples;Min_cycle;Max_cycle;Signal;HPM_P1;HPM_P2
2023/02/07 00:00:37;;;;;;;16.73;5.85;;;2.70;99.90;;;;;;4921077;29;20130;-93
2023/02/07 00:03:03;;;;;;;20.52;6.38;;;2.70;99.90;;;;;;4937961;29;20048;-92
2023/02/07 00:05:28;;;;;;;17.88;6.07;;;2.70;99.90;;;;;;4919878;29;20138;-93
2023/02/07 00:07:54;;;;;;;21.50;6.22;;;2.60;99.90;;;;;;4937986;29;20456;-93
2023/02/07 00:10:20;;;;;;;20.70;6.65;;;2.60;99.90;;;;;;4937443;29;20083;-93
2023/02/07 00:12:45;;;;;;;14.05;6.32;;;2.60;99.90;;;;;;4937500;29;20046;-93
2023/02/07 00:15:11;;;;;;;23.23;7.22;;;2.60;99.90;;;;;;4928338;23;20492;-92
2023/02/07 00:17:37;;;;;;;19.83;7.15;;;2.60;99.90;;;;;;4937530;29;20055;-91
2023/02/07 00:20:04;;;;;;;23.15;7.28;;;2.50;99.90;;;;;;4936922;29;20408;-92
2023/02/07 00:22:30;;;;;;;20.10;6.78;;;2.50;99.90;;;;;;4937063;29;20397;-92
2023/02/07 00:24:56;;;;;;;22.35;7.70;;;2.50;99.90;;;;;;4920477;29;20083;-92
2023/02/07 00:27:22;;;;;;;19.55;6.97;;;2.50;99.90;;;;;;4936738;29;20043;-91
2023/02/07 00:29:48;;;;;;;21.15;7.38;;;2.50;99.90;;;;;;4920830;29;20044;-91
2023/02/07 00:32:14;;;;;;;19.70;7.57;;;2.50;99.90;;;;;;4920216;29;20056;-92
2023/02/07 00:34:40;;;;;;;20.92;7.13;;;2.40;99.90;;;;;;4936217;29;20044;-92
2023/02/07 00:37:05;;;;;;;19.92;6.95;;;2.40;99.90;;;;;;4920272;29;20051;-92
2023/02/07 00:39:32;;;;;;;24.52;7.20;;;2.40;99.90;;;;;;4919455;29;20051;-92
2023/02/07 00:41:57;;;;;;;20.70;6.65;;;2.30;99.90;;;;;;4919694;29;20044;-93
2023/02/07 00:44:23;;;;;;;20.08;6.50;;;2.30;99.90;;;;;;4935813;29;20500;-92
2023/02/07 00:46:49;;;;;;;21.55;7.20;;;2.30;99.90;;;;;;4937137;29;20044;-93
2023/02/07 00:49:14;;;;;;;18.02;6.97;;;2.30;99.90;;;;;;4937102;29;20103;-93
2023/02/07 00:51:40;;;;;;;16.52;7.05;;;2.30;99.90;;;;;;4920210;29;20044;-93
2023/02/07 00:54:06;;;;;;;18.63;6.95;;;2.30;99.90;;;;;;4919420;29;20492;-92
2023/02/07 00:56:32;;;;;;;17.13;6.28;;;2.30;99.90;;;;;;4936746;29;20389;-92
2023/02/07 00:58:58;;;;;;;20.00;6.75;;;2.20;99.90;;;;;;4936969;29;20114;-93
2023/02/07 01:01:26;;;;;;;18.23;6.40;;;2.30;99.90;;;;;;4919647;29;20048;-92
2023/02/07 01:03:54;;;;;;;19.10;6.57;;;2.20;99.90;;;;;;4920403;29;20055;-92
2023/02/07 01:06:20;;;;;;;21.15;7.28;;;2.20;99.90;;;;;;4919561;29;20046;-92
2023/02/07 01:08:46;;;;;;;19.80;6.40;;;2.10;99.90;;;;;;4919602;29;20393;-92
2023/02/07 01:11:15;;;;;;;17.33;6.43;;;2.10;99.90;;;;;;4936609;29;20079;-92
2023/02/07 01:13:42;;;;;;;16.15;6.43;;;2.10;99.90;;;;;;4936903;29;20043;-92
2023/02/07 01:16:25;;;;;;;15.68;6.55;;;2.10;99.90;;;;;;4919411;29;20056;-92
2023/02/07 01:18:52;;;;;;;20.60;6.60;;;2.10;99.90;;;;;;4936550;29;20369;-93
2023/02/07 01:21:20;;;;;;;19.75;6.68;;;2.10;99.90;;;;;;4919674;29;20455;-92
2023/02/07 01:23:46;;;;;;;16.23;6.75;;;2.10;99.90;;;;;;4936357;29;20040;-92
2023/02/07 01:26:12;;;;;;;18.10;6.40;;;2.00;99.90;;;;;;4932705;29;20043;-92
2023/02/07 01:28:37;;;;;;;17.58;6.38;;;2.00;99.90;;;;;;4940575;29;20118;-92
2023/02/07 01:31:08;;;;;;;22.42;7.30;;;2.00;99.90;;;;;;4923254;29;20047;-91
2023/02/07 01:33:35;;;;;;;16.50;6.53;;;2.00;99.90;;;;;;4922306;29;20043;-91
2023/02/07 01:36:09;;;;;;;15.57;6.57;;;2.00;99.90;;;;;;4922521;29;20088;-90
2023/02/07 01:38:35;;;;;;;22.58;7.13;;;2.00;99.90;;;;;;4916603;29;20054;-91
2023/02/07 01:41:01;;;;;;;17.08;6.43;;;2.00;99.90;;;;;;4940289;29;20404;-92
2023/02/07 01:43:26;;;;;;;15.25;6.60;;;2.00;99.90;;;;;;4939191;29;20107;-91
2023/02/07 01:45:52;;;;;;;20.17;7.82;;;1.90;99.90;;;;;;4939996;29;20500;-91
2023/02/07 01:48:34;;;;;;;19.60;7.03;;;2.00;99.90;;;;;;4938477;29;20039;-90
2023/02/07 01:51:04;;;;;;;16.67;7.00;;;1.90;99.90;;;;;;4922087;29;20051;-89
2023/02/07 01:53:32;;;;;;;18.48;7.20;;;1.90;99.90;;;;;;4921947;29;20071;-90
2023/02/07 01:56:02;;;;;;;19.60;7.55;;;1.80;99.90;;;;;;4939327;29;20508;-91
2023/02/07 01:58:27;;;;;;;17.15;7.13;;;1.90;99.90;;;;;;4921373;29;20040;-91
2023/02/07 02:00:54;;;;;;;17.23;7.65;;;1.80;99.90;;;;;;4939883;29;20115;-90
2023/02/07 02:03:19;;;;;;;17.17;7.28;;;1.80;99.90;;;;;;4921755;29;20117;-91
2023/02/07 02:05:47;;;;;;;17.52;7.50;;;1.80;99.90;;;;;;4938325;29;20064;-90
2023/02/07 02:08:12;;;;;;;20.55;7.97;;;1.80;99.90;;;;;;4938452;29;20044;-90
2023/02/07 02:10:50;;;;;;;18.85;8.15;;;1.80;99.90;;;;;;4922296;29;20058;-91
2023/02/07 02:13:39;;;;;;;19.45;7.70;;;1.80;99.90;;;;;;4921419;29;20049;-91
2023/02/07 02:16:22;;;;;;;20.25;7.90;;;1.70;99.90;;;;;;4922026;29;20519;-90
2023/02/07 02:19:07;;;;;;;19.63;8.55;;;1.70;99.90;;;;;;4918776;29;20059;-90
2023/02/07 02:21:55;;;;;;;20.95;8.60;;;1.70;99.90;;;;;;4921358;29;20055;-90
2023/02/07 02:25:06;;;;;;;17.13;7.93;;;1.60;99.90;;;;;;4921036;29;20043;-90
2023/02/07 02:27:55;;;;;;;16.35;8.10;;;1.60;99.90;;;;;;4913093;29;20068;-90
2023/02/07 02:30:56;;;;;;;16.98;8.18;;;1.60;99.90;;;;;;4902646;29;20079;-90
2023/02/07 02:33:46;;;;;;;20.45;8.80;;;1.60;99.90;;;;;;4922927;29;20481;-90
2023/02/07 02:36:27;;;;;;;22.42;8.88;;;1.60;99.90;;;;;;4916701;29;20051;-90
2023/02/07 02:39:09;;;;;;;19.88;8.48;;;1.50;99.90;;;;;;4911025;29;20050;-90
2023/02/07 02:42:02;;;;;;;16.88;8.93;;;1.50;99.90;;;;;;4933831;29;20126;-90
2023/02/07 02:44:34;;;;;;;17.55;8.80;;;1.50;99.90;;;;;;4934203;29;20079;-90
2023/02/07 02:47:02;;;;;;;15.50;8.23;;;1.50;99.90;;;;;;4920157;29;20480;-90
2023/02/07 02:49:29;;;;;;;19.10;9.43;;;1.40;99.90;;;;;;4937468;29;20579;-90
2023/02/07 02:51:55;;;;;;;19.50;9.93;;;1.40;99.90;;;;;;4938079;29;20051;-90
2023/02/07 02:54:35;;;;;;;19.67;10.05;;;1.40;99.90;;;;;;4919742;29;20103;-90
2023/02/07 02:57:30;;;;;;;20.83;10.25;;;1.40;99.90;;;;;;4938078;29;20046;-90
2023/02/07 03:00:32;;;;;;;23.60;10.25;;;1.40;99.90;;;;;;4938199;29;20091;-90
2023/02/07 03:03:28;;;;;;;21.17;10.32;;;1.40;99.90;;;;;;4921119;29;20069;-90
2023/02/07 03:06:18;;;;;;;20.20;9.93;;;1.40;99.90;;;;;;4921080;29;20047;-90
2023/02/07 03:09:08;;;;;;;24.40;11.18;;;1.30;99.90;;;;;;4920539;29;20047;-90
2023/02/07 03:11:44;;;;;;;23.80;10.63;;;1.30;99.90;;;;;;4921164;29;20046;-90
2023/02/07 03:14:38;;;;;;;24.08;11.68;;;1.30;99.90;;;;;;4920839;29;20044;-89
2023/02/07 03:17:16;;;;;;;20.67;11.80;;;1.30;99.90;;;;;;4938111;29;20036;-91
2023/02/07 03:20:02;;;;;;;23.38;11.02;;;1.30;99.90;;;;;;4937916;29;20560;-91
2023/02/07 03:22:29;;;;;;;19.65;10.85;;;1.30;99.90;;;;;;4920270;29;20059;-90
2023/02/07 03:24:59;;;;;;;20.00;10.75;;;1.20;99.90;;;;;;4920563;29;20051;-90
2023/02/07 03:27:28;;;;;;;19.33;10.30;;;1.20;99.90;;;;;;4921063;29;20127;-91
2023/02/07 03:29:58;;;;;;;18.95;10.45;;;1.20;99.90;;;;;;4936575;29;20477;-91
2023/02/07 03:32:37;;;;;;;20.67;11.18;;;1.20;99.90;;;;;;4920008;29;20048;-90
2023/02/07 03:35:08;;;;;;;17.63;10.05;;;1.20;99.90;;;;;;4920011;29;20039;-91
2023/02/07 03:37:41;;;;;;;18.92;9.77;;;1.20;99.90;;;;;;4920981;29;20055;-91
2023/02/07 03:40:09;;;;;;;18.80;9.95;;;1.20;99.90;;;;;;4928269;29;20437;-90
2023/02/07 03:42:39;;;;;;;17.13;9.63;;;1.10;99.90;;;;;;4918240;29;20083;-91
2023/02/07 03:45:08;;;;;;;16.90;9.90;;;1.10;99.90;;;;;;4919549;29;20122;-91
2023/02/07 03:47:34;;;;;;;18.98;10.30;;;1.10;99.90;;;;;;4915786;29;20392;-91
2023/02/07 03:49:59;;;;;;;18.83;10.73;;;1.10;99.90;;;;;;4971748;23;20048;-90
2023/02/07 03:52:25;;;;;;;19.48;10.70;;;1.10;99.90;;;;;;4919852;29;20048;-91
2023/02/07 03:54:50;;;;;;;17.85;10.40;;;1.10;99.90;;;;;;4919559;29;20047;-90
2023/02/07 03:57:16;;;;;;;18.48;10.32;;;1.00;99.90;;;;;;4936024;29;20433;-90
2023/02/07 03:59:42;;;;;;;20.08;10.68;;;1.00;99.90;;;;;;4936856;29;20071;-90
2023/02/07 04:02:07;;;;;;;17.17;9.98;;;1.10;99.90;;;;;;4936467;29;20175;-91
2023/02/07 04:04:33;;;;;;;19.30;10.18;;;1.00;99.90;;;;;;4918956;29;20088;-91
2023/02/07 04:06:59;;;;;;;18.40;10.38;;;1.00;99.90;;;;;;4937237;29;20046;-91
2023/02/07 04:09:24;;;;;;;17.23;9.32;;;1.00;99.90;;;;;;4920567;29;20127;-91
2023/02/07 04:11:50;;;;;;;17.60;10.32;;;1.00;99.90;;;;;;4919620;29;20054;-91
2023/02/07 04:14:20;;;;;;;19.73;9.90;;;1.00;99.90;;;;;;4937238;29;20040;-91
2023/02/07 04:16:47;;;;;;;20.50;9.70;;;0.90;99.90;;;;;;4919574;29;20051;-90
2023/02/07 04:19:13;;;;;;;19.65;10.48;;;0.90;99.90;;;;;;4935730;29;20048;-90
2023/02/07 04:21:39;;;;;;;16.90;10.63;;;0.90;99.90;;;;;;4919687;29;20540;-90
2023/02/07 04:24:04;;;;;;;18.70;10.15;;;0.90;99.90;;;;;;4919697;29;20087;-91
2023/02/07 04:26:30;;;;;;;19.15;10.90;;;0.90;99.90;;;;;;4918674;29;20582;-90
2023/02/07 04:28:55;;;;;;;22.23;11.70;;;0.90;99.90;;;;;;4936973;29;20039;-90
2023/02/07 04:31:21;;;;;;;21.50;10.88;;;0.80;99.90;;;;;;4935871;29;20051;-90
2023/02/07 04:33:47;;;;;;;18.45;11.20;;;0.80;99.90;;;;;;4919446;29;20404;-91
2023/02/07 04:36:13;;;;;;;24.23;12.30;;;0.80;99.90;;;;;;4936370;29;20460;-90
2023/02/07 04:38:39;;;;;;;22.75;12.27;;;0.80;99.90;;;;;;4918740;29;20047;-90
2023/02/07 04:41:05;;;;;;;23.30;12.07;;;0.80;99.90;;;;;;4918976;29;20564;-90
2023/02/07 04:43:32;;;;;;;26.02;13.80;;;0.80;99.90;;;;;;4936342;29;20086;-91
2023/02/07 04:45:58;;;;;;;21.65;12.48;;;0.80;99.90;;;;;;4935233;29;20032;-90
2023/02/07 04:48:24;;;;;;;24.08;12.75;;;0.80;99.90;;;;;;4919477;29;20098;-90
2023/02/07 04:50:50;;;;;;;23.30;13.15;;;0.70;99.90;;;;;;4918079;29;20056;-91
2023/02/07 04:53:15;;;;;;;22.73;12.38;;;0.70;99.90;;;;;;4918770;29;20392;-90
2023/02/07 04:55:41;;;;;;;21.55;12.63;;;0.70;99.90;;;;;;4935844;29;20406;-90
2023/02/07 04:58:07;;;;;;;23.77;13.02;;;0.70;99.90;;;;;;4919254;29;20048;-90
2023/02/07 05:00:33;;;;;;;23.23;12.40;;;0.70;99.90;;;;;;4917119;29;20044;-90
2023/02/07 05:02:59;;;;;;;27.17;14.02;;;0.70;99.90;;;;;;4919198;29;20036;-90
2023/02/07 05:05:25;;;;;;;24.83;13.25;;;0.70;99.90;;;;;;4918631;29;20043;-90
2023/02/07 05:07:51;;;;;;;25.33;13.38;;;0.70;99.90;;;;;;4918352;29;20039;-89
2023/02/07 05:10:16;;;;;;;24.33;12.98;;;0.60;99.90;;;;;;4918410;29;20044;-90
2023/02/07 05:12:42;;;;;;;25.95;14.02;;;0.70;99.90;;;;;;4936146;29;20110;-90
2023/02/07 05:15:08;;;;;;;24.45;12.73;;;0.60;99.90;;;;;;4935447;29;20067;-90
2023/02/07 05:17:34;;;;;;;30.10;13.90;;;0.60;99.90;;;;;;4935477;29;20044;-91
2023/02/07 05:20:00;;;;;;;24.02;13.10;;;0.60;99.90;;;;;;4935838;29;20043;-90
2023/02/07 05:22:26;;;;;;;22.95;11.88;;;0.60;99.90;;;;;;4935031;29;20127;-90
2023/02/07 05:24:52;;;;;;;23.77;13.23;;;0.60;99.90;;;;;;4928595;23;20139;-90
2023/02/07 05:27:17;;;;;;;23.50;13.23;;;0.60;99.90;;;;;;4899744;29;20059;-90
2023/02/07 05:29:43;;;;;;;26.20;13.80;;;0.50;99.90;;;;;;4915377;29;20044;-90
2023/02/07 05:34:57;;;;;;;25.73;12.73;;;0.50;99.90;;;;;;4905047;29;20048;-89
2023/02/07 05:37:22;;;;;;;24.02;12.77;;;0.40;99.90;;;;;;4917099;29;20127;-91
2023/02/07 05:39:48;;;;;;;22.42;12.77;;;0.40;99.90;;;;;;4913475;29;20159;-90
2023/02/07 05:42:13;;;;;;;22.52;13.40;;;0.40;99.90;;;;;;4899009;29;20059;-90
2023/02/07 05:44:39;;;;;;;22.42;12.80;;;0.40;99.90;;;;;;4916940;29;20531;-91
2023/02/07 05:47:05;;;;;;;23.45;12.43;;;0.40;99.90;;;;;;4917295;29;20036;-90
2023/02/07 05:49:30;;;;;;;22.15;12.45;;;0.30;99.90;;;;;;4894800;29;20084;-90
2023/02/07 05:51:56;;;;;;;24.73;13.40;;;0.30;99.90;;;;;;4915278;29;20413;-92
2023/02/07 05:54:22;;;;;;;22.70;12.77;;;0.30;99.90;;;;;;4918587;29;20456;-94
2023/02/07 05:56:47;;;;;;;27.65;13.63;;;0.30;99.90;;;;;;4920380;29;20133;-93
2023/02/07 05:59:13;;;;;;;22.75;13.60;;;0.30;99.90;;;;;;4902177;29;20071;-92
2023/02/07 06:01:41;;;;;;;22.10;13.23;;;0.30;99.90;;;;;;4917775;29;20048;-93
2023/02/07 06:04:07;;;;;;;23.85;13.85;;;0.30;99.90;;;;;;4900609;29;20048;-93
2023/02/07 06:06:33;;;;;;;26.38;15.13;;;0.20;99.90;;;;;;4900254;29;20043;-94
2023/02/07 06:09:01;;;;;;;28.67;13.73;;;0.20;99.90;;;;;;4916625;29;20493;-93
2023/02/07 06:11:27;;;;;;;26.23;14.10;;;0.20;99.90;;;;;;4917897;29;20493;-90
2023/02/07 06:13:52;;;;;;;23.45;13.82;;;0.20;99.90;;;;;;4903918;29;20044;-92
2023/02/07 06:16:18;;;;;;;21.55;13.50;;;0.10;99.90;;;;;;4903253;29;20056;-90
2023/02/07 06:18:43;;;;;;;25.42;13.90;;;0.10;99.90;;;;;;4898371;29;20461;-92
2023/02/07 06:21:12;;;;;;;25.00;14.10;;;0.10;99.90;;;;;;4891522;29;20055;-91
2023/02/07 06:23:37;;;;;;;26.05;14.60;;;0.10;99.90;;;;;;4903303;29;20083;-92
2023/02/07 06:26:03;;;;;;;26.08;14.88;;;0.10;99.90;;;;;;4918979;29;20493;-92
2023/02/07 06:28:29;;;;;;;24.75;14.77;;;0.10;99.90;;;;;;4898799;29;20045;-91
2023/02/07 06:30:54;;;;;;;26.02;14.80;;;0.10;99.90;;;;;;4902413;29;20044;-93
2023/02/07 06:33:23;;;;;;;23.60;15.15;;;0.00;99.90;;;;;;4918732;29;20127;-92
2023/02/07 06:35:48;;;;;;;25.95;14.50;;;0.00;99.90;;;;;;4898637;29;20512;-92
2023/02/07 06:38:23;;;;;;;27.02;14.93;;;0.00;99.90;;;;;;4901862;29;20079;-91
2023/02/07 06:40:48;;;;;;;21.80;14.13;;;0.00;99.90;;;;;;4919846;29;20141;-92
2023/02/07 06:43:15;;;;;;;25.23;15.20;;;0.00;99.90;;;;;;4902536;29;20048;-92
2023/02/07 06:45:40;;;;;;;26.38;15.10;;;0.00;99.90;;;;;;4919260;29;20044;-92
2023/02/07 06:48:07;;;;;;;26.40;15.10;;;0.00;99.90;;;;;;4904787;29;20087;-92
2023/02/07 06:50:42;;;;;;;24.70;14.90;;;0.00;99.90;;;;;;4917490;29;20378;-90
2023/02/07 06:53:11;;;;;;;26.00;15.10;;;-0.10;99.90;;;;;;4901616;29;20056;-90
2023/02/07 06:55:38;;;;;;;29.80;16.42;;;-0.10;99.90;;;;;;4915207;29;20039;-91
2023/02/07 06:58:06;;;;;;;26.95;15.38;;;-0.10;99.90;;;;;;4918252;29;20123;-90
2023/02/07 07:00:32;;;;;;;27.83;15.80;;;-0.10;99.90;;;;;;4918516;29;20059;-90
2023/02/07 07:03:18;;;;;;;27.70;15.90;;;-0.10;99.90;;;;;;4901161;29;20509;-91
2023/02/07 07:05:43;;;;;;;25.15;15.38;;;-0.10;99.90;;;;;;4899907;29;20059;-90
2023/02/07 07:08:28;;;;;;;26.50;16.10;;;-0.10;99.90;;;;;;4901690;29;20040;-90
2023/02/07 07:11:00;;;;;;;30.33;16.30;;;-0.10;99.90;;;;;;4888975;29;20047;-89
2023/02/07 07:13:35;;;;;;;30.92;17.27;;;-0.10;99.90;;;;;;4900391;29;20071;-89
2023/02/07 07:16:01;;;;;;;27.20;15.73;;;-0.20;99.90;;;;;;4900958;29;20139;-89
2023/02/07 07:18:30;;;;;;;29.90;17.38;;;-0.10;99.90;;;;;;4894661;29;20131;-88
2023/02/07 07:21:08;;;;;;;31.90;18.02;;;-0.10;99.90;;;;;;4897817;29;20074;-89
2023/02/07 07:23:34;;;;;;;29.77;17.35;;;-0.20;99.90;;;;;;4896056;29;20454;-88
2023/02/07 07:26:10;;;;;;;26.17;16.90;;;-0.20;99.90;;;;;;4903161;29;20059;-93
2023/02/07 07:28:48;;;;;;;33.63;17.38;;;-0.20;99.90;;;;;;4917905;29;20052;-93
2023/02/07 07:31:14;;;;;;;28.10;16.33;;;-0.20;99.90;;;;;;4900505;29;20094;-89
2023/02/07 07:33:40;;;;;;;24.90;15.82;;;-0.20;99.90;;;;;;4900585;29;20051;-89
2023/02/07 07:36:06;;;;;;;27.75;17.15;;;-0.20;99.90;;;;;;4916053;29;20048;-89
2023/02/07 07:38:32;;;;;;;29.40;17.77;;;-0.20;99.90;;;;;;4900504;29;20104;-89
2023/02/07 07:40:58;;;;;;;27.92;15.75;;;-0.20;99.90;;;;;;4900878;29;20040;-88
2023/02/07 07:43:25;;;;;;;31.63;17.42;;;-0.20;99.90;;;;;;4915974;29;20051;-90
2023/02/07 07:45:52;;;;;;;26.23;16.48;;;-0.20;99.90;;;;;;4899170;29;20048;-89
2023/02/07 07:48:19;;;;;;;25.17;15.35;;;-0.20;99.90;;;;;;4900642;29;20100;-89
2023/02/07 07:50:44;;;;;;;25.75;16.48;;;-0.20;99.90;;;;;;4931788;23;20056;-89
2023/02/07 07:53:10;;;;;;;27.25;15.13;;;-0.20;99.90;;;;;;4916874;29;20044;-90
2023/02/07 07:55:37;;;;;;;25.10;16.02;;;-0.20;99.90;;;;;;4919674;29;20507;-90
2023/02/07 07:58:03;;;;;;;29.10;16.88;;;-0.30;99.90;;;;;;4937529;29;20452;-92
2023/02/07 08:00:28;;;;;;;28.13;17.02;;;-0.30;99.90;;;;;;4918182;29;20130;-91
2023/02/07 08:02:54;;;;;;;25.88;15.93;;;-0.30;99.90;;;;;;4913822;29;20044;-89
2023/02/07 08:05:20;;;;;;;27.13;15.43;;;-0.20;99.90;;;;;;4915054;29;20071;-89
2023/02/07 08:07:46;;;;;;;30.90;17.17;;;-0.30;99.90;;;;;;4919616;29;20036;-89
2023/02/07 08:10:14;;;;;;;25.40;15.27;;;-0.30;99.90;;;;;;4917455;29;20062;-89
2023/02/07 08:12:40;;;;;;;27.08;15.70;;;-0.30;99.90;;;;;;4917947;29;20057;-88
2023/02/07 08:15:08;;;;;;;25.10;15.02;;;-0.30;99.90;;;;;;4916586;29;20047;-89
2023/02/07 08:17:34;;;;;;;25.75;15.82;;;-0.30;99.90;;;;;;4923076;29;20043;-89
2023/02/07 08:19:59;;;;;;;26.83;15.52;;;-0.30;99.90;;;;;;4935613;29;20048;-87
2023/02/07 08:22:25;;;;;;;23.10;15.13;;;-0.30;99.90;;;;;;4915014;29;20043;-89
2023/02/07 08:24:51;;;;;;;24.58;15.13;;;-0.30;99.90;;;;;;4934526;29;20456;-88
2023/02/07 08:27:16;;;;;;;24.48;15.82;;;-0.30;99.90;;;;;;4929749;29;20079;-90
2023/02/07 08:29:44;;;;;;;24.95;15.63;;;-0.30;99.90;;;;;;4918751;29;20074;-90
2023/02/07 08:32:10;;;;;;;26.77;15.70;;;-0.30;99.90;;;;;;4917868;29;20051;-89
2023/02/07 08:34:38;;;;;;;29.27;16.73;;;-0.30;99.90;;;;;;4919032;29;20044;-90
2023/02/07 08:37:08;;;;;;;27.98;15.80;;;-0.20;99.90;;;;;;4918474;29;20082;-90
2023/02/07 08:39:35;;;;;;;25.45;15.57;;;-0.20;99.90;;;;;;4917787;29;20043;-90
2023/02/07 08:42:02;;;;;;;26.60;16.50;;;-0.20;99.90;;;;;;4918933;29;20130;-91
2023/02/07 08:44:27;;;;;;;24.23;16.15;;;-0.20;99.90;;;;;;4918819;29;20411;-91
2023/02/07 08:46:53;;;;;;;25.25;15.52;;;-0.20;99.90;;;;;;4917296;29;20044;-91
2023/02/07 08:49:18;;;;;;;25.65;16.33;;;-0.10;99.90;;;;;;4933500;29;20539;-90
2023/02/07 08:51:44;;;;;;;28.27;16.05;;;-0.10;99.90;;;;;;4918964;29;20520;-91
2023/02/07 08:54:10;;;;;;;23.27;15.55;;;-0.10;99.90;;;;;;4919697;29;20091;-90
2023/02/07 08:56:38;;;;;;;23.08;15.23;;;0.00;99.90;;;;;;4936007;29;20473;-89
2023/02/07 08:59:04;;;;;;;29.77;16.20;;;0.00;99.90;;;;;;4934888;29;20047;-91
2023/02/07 09:01:30;;;;;;;25.40;16.42;;;0.00;99.90;;;;;;4936194;29;20040;-90
2023/02/07 09:03:56;;;;;;;26.95;16.60;;;0.00;99.90;;;;;;4919194;29;20199;-89
2023/02/07 09:06:22;;;;;;;25.02;16.55;;;0.10;99.90;;;;;;4918196;29;20123;-92
2023/02/07 09:08:48;;;;;;;27.00;17.48;;;0.10;99.90;;;;;;4935372;29;20046;-91
2023/02/07 09:11:14;;;;;;;27.00;17.40;;;0.20;99.90;;;;;;4933705;29;20040;-91
2023/02/07 09:13:41;;;;;;;26.92;17.55;;;0.30;99.90;;;;;;4919000;29;20507;-93
2023/02/07 09:16:06;;;;;;;26.63;17.48;;;0.30;99.90;;;;;;4938526;29;20047;-92
2023/02/07 09:18:33;;;;;;;25.35;16.25;;;0.40;99.90;;;;;;4918406;29;20091;-93
2023/02/07 09:20:59;;;;;;;24.58;16.38;;;0.50;99.90;;;;;;4933582;29;20044;-87
2023/02/07 09:23:24;;;;;;;24.85;15.77;;;0.50;99.90;;;;;;4934528;29;20407;-91
2023/02/07 09:25:51;;;;;;;26.15;16.58;;;0.50;99.90;;;;;;4935858;29;20400;-91
2023/02/07 09:28:21;;;;;;;23.33;16.13;;;0.70;99.90;;;;;;4924771;24;20127;-92
2023/02/07 09:30:47;;;;;;;26.67;15.73;;;0.80;99.90;;;;;;4919301;29;20060;-91
2023/02/07 09:33:15;;;;;;;22.75;15.93;;;0.80;99.90;;;;;;4936137;29;20044;-90
2023/02/07 09:35:47;;;;;;;25.60;15.07;;;0.80;99.90;;;;;;4918716;29;20044;-91
2023/02/07 09:38:20;;;;;;;23.27;15.65;;;0.80;99.90;;;;;;4935909;29;20044;-91
2023/02/07 09:40:48;;;;;;;23.23;15.60;;;0.90;99.90;;;;;;4935893;29;20060;-91
2023/02/07 09:43:22;;;;;;;25.15;15.88;;;0.90;99.90;;;;;;4934984;29;20051;-89
2023/02/07 09:45:54;;;;;;;26.00;15.90;;;1.00;99.90;;;;;;4914085;29;20059;-90
2023/02/07 09:48:28;;;;;;;24.70;16.60;;;1.10;99.90;;;;;;4902991;29;20547;-90
2023/02/07 09:51:02;;;;;;;23.48;15.82;;;1.10;99.90;;;;;;4920872;29;20074;-90
2023/02/07 09:53:36;;;;;;;23.10;14.98;;;1.20;99.90;;;;;;4920130;29;20485;-90
2023/02/07 09:56:03;;;;;;;21.63;14.63;;;1.30;99.90;;;;;;4903147;29;20438;-91
2023/02/07 09:58:48;;;;;;;24.63;15.75;;;1.30;99.90;;;;;;4903138;29;20486;-90
2023/02/07 10:01:18;;;;;;;23.40;14.70;;;1.40;99.90;;;;;;4920100;29;20044;-90
2023/02/07 10:04:08;;;;;;;26.05;15.23;;;1.50;99.90;;;;;;4920600;29;20095;-91
2023/02/07 10:06:37;;;;;;;22.10;14.88;;;1.50;99.90;;;;;;4903482;29;20044;-90
2023/02/07 10:09:09;;;;;;;21.45;14.52;;;1.50;99.90;;;;;;4903323;29;20052;-91
2023/02/07 10:12:16;;;;;;;23.83;15.65;;;1.60;99.90;;;;;;4919726;29;20048;-91
2023/02/07 10:14:49;;;;;;;26.08;14.85;;;1.70;99.90;;;;;;4872676;29;20060;-90
2023/02/07 10:17:44;;;;;;;21.48;14.32;;;1.70;99.90;;;;;;4902549;29;20056;-91
2023/02/07 10:20:28;;;;;;;26.20;15.77;;;1.80;99.90;;;;;;4920077;29;20056;-91
2023/02/07 10:23:25;;;;;;;22.60;15.20;;;1.80;99.90;;;;;;4903229;29;20111;-91
2023/02/07 10:26:16;;;;;;;26.83;16.15;;;1.90;99.90;;;;;;4920969;29;20044;-91
2023/02/07 10:28:56;;;;;;;24.13;16.23;;;2.00;99.90;;;;;;4906614;29;20072;-96
2023/02/07 10:31:24;;;;;;;22.30;15.65;;;2.00;99.90;;;;;;4926880;29;20489;-93
2023/02/07 10:33:57;;;;;;;23.05;15.77;;;2.10;99.90;;;;;;4936749;29;20039;-92
2023/02/07 10:36:23;;;;;;;24.10;15.80;;;2.10;99.90;;;;;;4903919;29;20047;-93
2023/02/07 10:39:04;;;;;;;24.40;16.25;;;2.20;99.90;;;;;;4903710;29;20039;-93
2023/02/07 10:41:38;;;;;;;23.50;15.95;;;2.30;99.90;;;;;;4935605;29;20389;-93
2023/02/07 10:44:12;;;;;;;26.17;15.60;;;2.30;99.90;;;;;;4936087;29;20044;-95
2023/02/07 10:46:42;;;;;;;24.05;15.15;;;2.40;99.90;;;;;;4924851;29;20044;-93
2023/02/07 10:49:18;;;;;;;23.52;14.88;;;2.40;99.90;;;;;;4939643;29;20039;-96
2023/02/07 10:51:45;;;;;;;23.40;15.40;;;2.50;99.90;;;;;;4941757;29;20047;-95
2023/02/07 10:54:23;;;;;;;26.45;15.65;;;2.50;99.90;;;;;;4923137;29;20043;-95
2023/02/07 10:56:53;;;;;;;24.98;15.27;;;2.60;99.90;;;;;;4922129;29;20063;-93
2023/02/07 10:59:37;;;;;;;22.52;15.57;;;2.70;99.90;;;;;;4921748;29;20035;-96
2023/02/07 11:02:31;;;;;;;19.48;13.77;;;2.70;99.90;;;;;;4923422;29;20051;-95
2023/02/07 11:05:17;;;;;;;24.33;14.73;;;2.80;99.90;;;;;;4951951;29;20055;-91
2023/02/07 11:08:01;;;;;;;23.13;15.57;;;2.90;99.90;;;;;;4918858;29;20055;-90
2023/02/07 11:10:34;;;;;;;22.98;15.07;;;2.90;99.90;;;;;;4921055;29;20070;-92
2023/02/07 11:13:01;;;;;;;25.40;15.63;;;3.00;99.90;;;;;;4921423;29;20114;-91
2023/02/07 11:15:34;;;;;;;24.92;13.98;;;3.00;99.90;;;;;;4944086;29;20122;-92
2023/02/07 11:18:00;;;;;;;23.50;15.90;;;3.10;99.90;;;;;;4923848;29;20103;-92
2023/02/07 11:20:28;;;;;;;25.70;15.00;;;3.10;99.90;;;;;;4914701;29;20079;-94
2023/02/07 11:23:00;;;;;;;22.38;14.70;;;3.20;99.90;;;;;;4938599;29;20044;-92
2023/02/07 11:25:31;;;;;;;22.10;15.55;;;3.30;99.90;;;;;;4921221;29;20044;-93
2023/02/07 11:27:58;;;;;;;24.67;14.88;;;3.30;99.90;;;;;;4919623;29;20405;-93
2023/02/07 11:30:27;;;;;;;20.10;13.07;;;3.40;99.90;;;;;;4938827;29;20059;-94
2023/02/07 11:32:59;;;;;;;21.83;13.60;;;3.40;99.90;;;;;;4921512;29;20047;-92
2023/02/07 11:35:25;;;;;;;21.58;13.35;;;3.50;99.90;;;;;;4936685;29;20043;-92
2023/02/07 11:38:11;;;;;;;18.50;13.05;;;3.50;99.90;;;;;;4937646;29;20054;-92
2023/02/07 11:40:42;;;;;;;19.40;13.63;;;3.50;99.90;;;;;;4920931;29;20098;-91
2023/02/07 11:43:08;;;;;;;20.52;11.90;;;3.60;99.90;;;;;;4921421;29;20062;-92
2023/02/07 11:45:35;;;;;;;21.67;13.43;;;3.60;99.90;;;;;;4937439;29;20483;-92
2023/02/07 11:48:02;;;;;;;19.17;12.68;;;3.70;99.90;;;;;;4936662;29;20214;-92
2023/02/07 11:50:34;;;;;;;19.58;12.88;;;3.70;99.90;;;;;;4920307;29;20142;-91
2023/02/07 11:53:00;;;;;;;17.70;11.23;;;3.80;99.90;;;;;;4909491;29;20101;-91
2023/02/07 11:55:40;;;;;;;19.60;11.73;;;3.80;99.90;;;;;;4906514;29;20123;-91
2023/02/07 11:58:17;;;;;;;19.02;13.20;;;3.80;99.90;;;;;;4930196;29;20047;-91
2023/02/07 12:00:44;;;;;;;15.95;11.75;;;3.90;99.90;;;;;;4907222;29;20075;-92
2023/02/07 12:03:30;;;;;;;19.67;11.43;;;3.90;99.90;;;;;;4920217;29;20122;-92
2023/02/07 12:06:01;;;;;;;18.67;11.07;;;4.00;99.90;;;;;;4908996;29;20048;-92
2023/02/07 12:08:29;;;;;;;20.98;11.77;;;4.00;99.90;;;;;;4920636;29;20044;-93
2023/02/07 12:10:59;;;;;;;19.83;11.65;;;4.00;99.90;;;;;;4906561;29;20043;-92
2023/02/07 12:13:39;;;;;;;18.60;11.27;;;4.10;99.90;;;;;;4919752;29;20071;-92
2023/02/07 12:16:16;;;;;;;20.70;13.40;;;4.20;99.90;;;;;;4910574;29;20088;-93
2023/02/07 12:18:51;;;;;;;15.70;9.98;;;4.10;99.90;;;;;;4914903;29;20134;-92
2023/02/07 12:21:45;;;;;;;18.20;10.93;;;4.20;99.90;;;;;;4922558;29;20134;-92
2023/02/07 12:24:43;;;;;;;17.10;11.10;;;4.20;99.90;;;;;;4901256;29;20051;-92
2023/02/07 12:27:17;;;;;;;21.45;11.45;;;4.30;99.90;;;;;;4932225;29;20047;-91
2023/02/07 12:29:57;;;;;;;16.42;11.35;;;4.30;99.90;;;;;;4934792;29;20110;-89
2023/02/07 12:33:04;;;;;;;17.40;11.70;;;4.30;99.90;;;;;;4943547;23;20063;-92
2023/02/07 12:35:55;;;;;;;18.75;12.00;;;4.40;99.90;;;;;;4935736;29;20084;-92
2023/02/07 12:39:01;;;;;;;17.33;10.70;;;4.40;99.90;;;;;;4911713;29;20044;-91
2023/02/07 12:41:39;;;;;;;16.90;10.90;;;4.50;99.90;;;;;;4917609;29;20090;-91
2023/02/07 12:44:33;;;;;;;18.67;11.32;;;4.50;99.90;;;;;;4913783;29;20448;-92
2023/02/07 12:47:24;;;;;;;20.10;11.40;;;4.50;99.90;;;;;;4919530;29;20046;-91
2023/02/07 12:50:24;;;;;;;21.85;13.25;;;4.60;99.90;;;;;;4919990;29;20544;-91
2023/02/07 12:53:16;;;;;;;19.98;11.60;;;4.60;99.90;;;;;;4904382;29;20106;-93
2023/02/07 12:56:09;;;;;;;17.42;11.02;;;4.70;99.90;;;;;;4917396;29;20040;-91
2023/02/07 12:58:56;;;;;;;21.75;11.23;;;4.70;99.90;;;;;;4918045;29;20047;-91
2023/02/07 13:02:03;;;;;;;20.20;10.63;;;4.70;99.90;;;;;;4914692;29;20179;-92